KTPH Airport (Tonopah) Information

FAA: TPH - ICAO: KTPH

KTPH Airport Location

State Nevada
County Nye
City Tonopah
KTPH Airport is 7 miles east of Tonopah, NV.
Latitude 38-03-36.7000N
Longitude 117-05-12.5000W
Elevation 5,429ft

KTPH Airport METARs

METAR KTPH 281356Z AUTO 33004KT 10SM CLR 04/02 A3042 RMK AO2 SLP282 T00390017
Altimeter 30.42"
Temperature 3.9°C (39.0°F)
Wind 330° at 4KT
Clouds Skies are clear.
Visibility 10.0mi
Time observed: 2021-10-28T13:56:00Z

KTPH Airport Details

Status Operational
Activation September 1944
Ownership Public
Usage Public
Chart LAS VEGAS
ATC on-site No
Beacon schedule sunset-sunrise
Beacon color clear green

KTPH Airport Contacts

Owner NYE COUNTY
Owner address P O BOX 1031, TONOPAH, NV 89049
Owner phone (775) 209-4174
Manager CHARLES H COLEMAN
Manager address BOX 1397, ROUND MOUNTAIN, NV 89045
Manager phone 702-377-2044

KTPH Airport (Tonopah) Radio Frequencies

KTPH (Airport) Radio Frequencies

UNICOM 123
Common traffic advisory frequency (CTAF) 123